Time;durP1;ratioP1;P1;durP2;ratioP2;P2;SDS_P1;SDS_P2;PMS_P1;PMS_P2;Temp;Humidity;BMP_temperature;BMP_pressure;BME280_temperature;BME280_humidity;BME280_pressure;Samples;Min_cycle;Max_cycle;Signal;HPM_P1;HPM_P2
2021/10/24 00:00:28;;;;;;;23.53;16.50;;;;;;;;;;2083615;28;20234;-52
2021/10/24 00:01:29;;;;;;;28.47;18.17;;;;;;;;;;2087285;28;20195;-55
2021/10/24 00:02:29;;;;;;;23.97;18.70;;;;;;;;;;2082730;28;20736;-57
2021/10/24 00:03:30;;;;;;;24.30;16.20;;;;;;;;;;2089304;28;20186;-54
2021/10/24 00:04:31;;;;;;;20.50;15.63;;;;;;;;;;2081624;28;20188;-55
2021/10/24 00:05:31;;;;;;;24.63;16.80;;;;;;;;;;2087558;28;20203;-57
2021/10/24 00:06:31;;;;;;;22.67;15.20;;;;;;;;;;2089164;28;20679;-57
2021/10/24 00:07:32;;;;;;;23.90;16.17;;;;;;;;;;2089625;28;20270;-57
2021/10/24 00:08:32;;;;;;;21.50;15.77;;;;;;;;;;2090045;28;20644;-57
2021/10/24 00:09:32;;;;;;;21.60;15.80;;;;;;;;;;2090247;28;20194;-53
2021/10/24 00:10:33;;;;;;;23.93;15.40;;;;;;;;;;2089761;28;20215;-55
2021/10/24 00:11:34;;;;;;;19.33;14.93;;;;;;;;;;2083589;28;20230;-53
2021/10/24 00:12:35;;;;;;;19.00;15.30;;;;;;;;;;2087286;28;20168;-55
2021/10/24 00:13:36;;;;;;;21.63;17.27;;;;;;;;;;2087756;28;20648;-58
2021/10/24 00:14:36;;;;;;;23.30;16.20;;;;;;;;;;2094924;28;20204;-54
2021/10/24 00:15:36;;;;;;;20.73;16.77;;;;;;;;;;2089691;28;20214;-53
2021/10/24 00:16:36;;;;;;;20.03;15.57;;;;;;;;;;2089624;28;20554;-54
2021/10/24 00:17:37;;;;;;;20.07;16.00;;;;;;;;;;2087258;28;20546;-52
2021/10/24 00:18:37;;;;;;;21.37;16.90;;;;;;;;;;2094223;28;20178;-51
2021/10/24 00:19:37;;;;;;;20.70;16.40;;;;;;;;;;2087801;28;20271;-53
2021/10/24 00:20:38;;;;;;;25.00;17.23;;;;;;;;;;2087964;28;20598;-54
2021/10/24 00:21:38;;;;;;;26.10;17.67;;;;;;;;;;2090049;28;20207;-54
2021/10/24 00:22:38;;;;;;;24.70;18.07;;;;;;;;;;2090247;28;20184;-57
2021/10/24 00:23:39;;;;;;;24.80;18.60;;;;;;;;;;2087245;28;20727;-56
2021/10/24 00:24:39;;;;;;;25.70;17.13;;;;;;;;;;2089010;28;20258;-53
2021/10/24 00:25:40;;;;;;;24.27;17.27;;;;;;;;;;2090979;28;20415;-54
2021/10/24 00:26:41;;;;;;;23.00;18.47;;;;;;;;;;2089496;28;20184;-56
2021/10/24 00:27:41;;;;;;;28.57;18.20;;;;;;;;;;2082309;28;20183;-56
2021/10/24 00:28:41;;;;;;;20.30;17.87;;;;;;;;;;2080175;28;20231;-54
2021/10/24 00:29:42;;;;;;;24.10;17.33;;;;;;;;;;2082204;28;20264;-55
2021/10/24 00:30:42;;;;;;;28.60;18.30;;;;;;;;;;2081661;28;20207;-55
2021/10/24 00:31:42;;;;;;;24.50;17.43;;;;;;;;;;2074827;28;20616;-55
2021/10/24 00:32:43;;;;;;;27.30;17.70;;;;;;;;;;2084906;28;20207;-58
2021/10/24 00:33:43;;;;;;;24.20;17.13;;;;;;;;;;2088313;28;20551;-53
2021/10/24 00:34:43;;;;;;;22.40;18.00;;;;;;;;;;2095866;28;20236;-54
2021/10/24 00:35:44;;;;;;;25.87;18.27;;;;;;;;;;2096753;28;20173;-53
2021/10/24 00:36:44;;;;;;;25.90;18.27;;;;;;;;;;2089875;28;20214;-52
2021/10/24 00:37:45;;;;;;;24.30;17.83;;;;;;;;;;2087991;28;20740;-54
2021/10/24 00:38:45;;;;;;;27.23;18.87;;;;;;;;;;2087100;28;20578;-52
2021/10/24 00:39:45;;;;;;;25.73;19.37;;;;;;;;;;2082593;28;20368;-57
2021/10/24 00:40:45;;;;;;;26.10;18.13;;;;;;;;;;2077143;28;20187;-55
2021/10/24 00:41:46;;;;;;;24.03;17.87;;;;;;;;;;2083346;28;20206;-57
2021/10/24 00:42:47;;;;;;;23.50;18.77;;;;;;;;;;2085989;28;20180;-53
2021/10/24 00:43:48;;;;;;;27.13;16.97;;;;;;;;;;2083071;28;20240;-55
2021/10/24 00:44:48;;;;;;;22.77;17.40;;;;;;;;;;2076683;28;20562;-57
2021/10/24 00:45:48;;;;;;;25.60;17.90;;;;;;;;;;2089902;28;20628;-54
2021/10/24 00:46:49;;;;;;;23.10;18.37;;;;;;;;;;2080945;28;20172;-57
2021/10/24 00:47:49;;;;;;;21.53;16.50;;;;;;;;;;2078427;28;20267;-52
2021/10/24 00:48:50;;;;;;;26.07;18.03;;;;;;;;;;2079799;28;20192;-55
2021/10/24 00:49:50;;;;;;;27.57;18.20;;;;;;;;;;2088381;28;20182;-56
2021/10/24 00:50:51;;;;;;;26.57;18.93;;;;;;;;;;2072633;28;20244;-55
2021/10/24 00:51:52;;;;;;;27.37;19.00;;;;;;;;;;2073243;28;21921;-56
2021/10/24 00:52:53;;;;;;;27.43;21.17;;;;;;;;;;2081174;28;20176;-53
2021/10/24 00:53:54;;;;;;;31.13;22.03;;;;;;;;;;2095526;28;20171;-57
2021/10/24 00:54:54;;;;;;;23.23;19.07;;;;;;;;;;2083477;28;20170;-53
2021/10/24 00:55:54;;;;;;;29.57;20.37;;;;;;;;;;2073652;28;20173;-55
2021/10/24 00:56:56;;;;;;;33.20;21.67;;;;;;;;;;2079886;28;20258;-54
2021/10/24 00:57:56;;;;;;;32.70;23.60;;;;;;;;;;2074472;28;20196;-56
2021/10/24 00:58:57;;;;;;;28.57;22.67;;;;;;;;;;2084376;28;20219;-54
2021/10/24 00:59:57;;;;;;;44.73;32.70;;;;;;;;;;2064778;28;20205;-54
2021/10/24 01:00:57;;;;;;;36.07;27.80;;;;;;;;;;2071658;28;20181;-52
2021/10/24 01:01:58;;;;;;;38.33;27.30;;;;;;;;;;2076457;28;20807;-57
2021/10/24 01:02:59;;;;;;;27.17;20.10;;;;;;;;;;2085785;28;20179;-55
2021/10/24 01:04:00;;;;;;;32.77;23.07;;;;;;;;;;2089186;28;20261;-56
2021/10/24 01:05:01;;;;;;;34.47;22.30;;;;;;;;;;2073928;28;20255;-55
2021/10/24 01:06:01;;;;;;;26.50;20.73;;;;;;;;;;2067191;28;20190;-53
2021/10/24 01:07:03;;;;;;;28.03;22.37;;;;;;;;;;2079585;28;20172;-54
2021/10/24 01:08:03;;;;;;;29.53;21.83;;;;;;;;;;2090151;28;20179;-57
2021/10/24 01:09:05;;;;;;;24.93;21.03;;;;;;;;;;2080664;28;20208;-55
2021/10/24 01:10:07;;;;;;;27.33;20.53;;;;;;;;;;2082433;28;20198;-57
2021/10/24 01:11:07;;;;;;;28.40;21.87;;;;;;;;;;2082919;28;20711;-56
2021/10/24 01:12:08;;;;;;;21.60;18.77;;;;;;;;;;2088194;28;20206;-54
2021/10/24 01:13:08;;;;;;;29.67;20.67;;;;;;;;;;2089423;28;20533;-56
2021/10/24 01:14:08;;;;;;;27.57;20.53;;;;;;;;;;2080564;28;20177;-54
2021/10/24 01:15:09;;;;;;;27.97;18.87;;;;;;;;;;2087449;28;20168;-54
2021/10/24 01:16:09;;;;;;;23.67;20.33;;;;;;;;;;2081228;28;20255;-55
2021/10/24 01:17:11;;;;;;;23.83;19.03;;;;;;;;;;2076755;28;20263;-51
2021/10/24 01:18:12;;;;;;;23.40;18.27;;;;;;;;;;2074235;28;20668;-57
2021/10/24 01:19:13;;;;;;;25.67;16.93;;;;;;;;;;2077393;28;20172;-53
2021/10/24 01:20:18;;;;;;;26.00;18.17;;;;;;;;;;2079372;28;20170;-53
2021/10/24 01:21:19;;;;;;;25.90;17.63;;;;;;;;;;2084658;28;20179;-55
2021/10/24 01:22:20;;;;;;;22.70;17.17;;;;;;;;;;2085179;28;20195;-55
2021/10/24 01:23:23;;;;;;;24.17;17.47;;;;;;;;;;2087308;28;20665;-57
2021/10/24 01:24:25;;;;;;;22.73;17.03;;;;;;;;;;2080829;28;20196;-56
2021/10/24 01:25:25;;;;;;;20.77;16.07;;;;;;;;;;2077796;28;20184;-54
2021/10/24 01:26:26;;;;;;;21.40;15.30;;;;;;;;;;2075973;28;20169;-54
2021/10/24 01:27:27;;;;;;;24.30;16.97;;;;;;;;;;2088063;28;20583;-54
2021/10/24 01:28:28;;;;;;;20.77;16.13;;;;;;;;;;2088683;28;20180;-57
2021/10/24 01:29:28;;;;;;;23.80;16.77;;;;;;;;;;2086581;28;20313;-57
2021/10/24 01:30:29;;;;;;;21.97;17.33;;;;;;;;;;2088377;28;20194;-56
2021/10/24 01:31:29;;;;;;;22.03;16.67;;;;;;;;;;2081893;28;20176;-54
2021/10/24 01:32:30;;;;;;;21.53;16.63;;;;;;;;;;2082425;28;20211;-54
2021/10/24 01:33:30;;;;;;;21.90;16.90;;;;;;;;;;2080691;28;20172;-56
2021/10/24 01:34:31;;;;;;;30.93;18.67;;;;;;;;;;2076482;28;20183;-56
2021/10/24 01:35:31;;;;;;;25.40;19.07;;;;;;;;;;2059203;28;20178;-53
2021/10/24 01:36:32;;;;;;;28.87;19.73;;;;;;;;;;2063222;28;20181;-57
2021/10/24 01:37:33;;;;;;;23.60;17.83;;;;;;;;;;2084344;28;20171;-55
2021/10/24 01:38:34;;;;;;;23.77;18.70;;;;;;;;;;2091564;28;20184;-53
2021/10/24 01:39:34;;;;;;;22.07;18.60;;;;;;;;;;2083593;28;20180;-56
2021/10/24 01:40:34;;;;;;;28.63;19.33;;;;;;;;;;2073330;28;20169;-55
2021/10/24 01:41:35;;;;;;;26.77;19.43;;;;;;;;;;2078677;28;20176;-55
2021/10/24 01:42:44;;;;;;;23.57;19.37;;;;;;;;;;2075229;28;20188;-52
2021/10/24 01:43:46;;;;;;;31.77;18.20;;;;;;;;;;2091192;28;20175;-54
2021/10/24 01:44:49;;;;;;;25.80;19.03;;;;;;;;;;2076944;28;20219;-55
2021/10/24 01:45:50;;;;;;;23.17;18.90;;;;;;;;;;2075519;28;20176;-56
2021/10/24 01:46:53;;;;;;;25.13;18.13;;;;;;;;;;2091305;28;20172;-55
2021/10/24 01:47:55;;;;;;;27.20;19.67;;;;;;;;;;2090859;28;20168;-55
2021/10/24 01:48:55;;;;;;;27.53;19.47;;;;;;;;;;2081844;28;20172;-55
2021/10/24 01:49:56;;;;;;;28.57;18.80;;;;;;;;;;2087886;28;20597;-57
2021/10/24 01:50:57;;;;;;;25.43;19.73;;;;;;;;;;2066433;28;20212;-52
2021/10/24 01:52:01;;;;;;;32.23;19.90;;;;;;;;;;2086622;28;20198;-55
2021/10/24 01:53:02;;;;;;;28.60;19.93;;;;;;;;;;2083589;28;20160;-55
2021/10/24 01:54:03;;;;;;;29.90;19.77;;;;;;;;;;2089048;28;20163;-52
2021/10/24 01:55:06;;;;;;;24.70;18.57;;;;;;;;;;2079150;28;20180;-54
2021/10/24 01:56:06;;;;;;;24.67;19.43;;;;;;;;;;2075183;28;20240;-55
2021/10/24 01:57:10;;;;;;;27.87;19.33;;;;;;;;;;2080884;28;20263;-56
2021/10/24 01:58:10;;;;;;;24.63;18.93;;;;;;;;;;2072754;28;20189;-52
2021/10/24 01:59:11;;;;;;;28.90;19.70;;;;;;;;;;2067252;28;20213;-53
2021/10/24 02:00:30;;;;;;;29.47;19.30;;;;;;;;;;2073008;28;20185;-54
2021/10/24 02:01:30;;;;;;;27.17;19.53;;;;;;;;;;2084123;28;20176;-52
2021/10/24 02:02:38;;;;;;;26.43;20.00;;;;;;;;;;2069262;28;20174;-54
2021/10/24 02:04:03;;;;;;;24.00;19.07;;;;;;;;;;2081935;28;20186;-56
2021/10/24 02:05:18;;;;;;;26.23;19.40;;;;;;;;;;2084423;28;20173;-53
2021/10/24 02:06:18;;;;;;;28.30;19.73;;;;;;;;;;2088040;28;20244;-55
2021/10/24 02:07:18;;;;;;;30.83;21.50;;;;;;;;;;2084192;28;20260;-53
2021/10/24 02:08:20;;;;;;;26.77;20.27;;;;;;;;;;2080087;28;20188;-56
2021/10/24 02:09:20;;;;;;;28.67;20.77;;;;;;;;;;2080060;28;20187;-51
2021/10/24 02:10:21;;;;;;;30.03;21.17;;;;;;;;;;2076151;28;20210;-53
2021/10/24 02:11:21;;;;;;;26.07;19.27;;;;;;;;;;2078205;28;20608;-53
2021/10/24 02:12:23;;;;;;;25.40;19.53;;;;;;;;;;2070224;28;20627;-55
2021/10/24 02:13:29;;;;;;;27.87;19.53;;;;;;;;;;2071487;28;20639;-53
2021/10/24 02:14:36;;;;;;;27.13;18.93;;;;;;;;;;2072314;28;20168;-51
2021/10/24 02:15:36;;;;;;;24.67;18.67;;;;;;;;;;2085821;28;20179;-53
2021/10/24 02:16:38;;;;;;;26.47;19.20;;;;;;;;;;2074854;28;20724;-54
2021/10/24 02:17:38;;;;;;;24.87;18.03;;;;;;;;;;2078661;28;20211;-51
2021/10/24 02:18:39;;;;;;;25.77;18.13;;;;;;;;;;2076936;28;20542;-54
2021/10/24 02:19:39;;;;;;;21.90;17.27;;;;;;;;;;2072393;28;20661;-52
2021/10/24 02:20:41;;;;;;;21.57;16.40;;;;;;;;;;2082672;28;20653;-53
2021/10/24 02:21:41;;;;;;;22.13;16.37;;;;;;;;;;2084048;28;20593;-52
2021/10/24 02:22:41;;;;;;;20.07;15.43;;;;;;;;;;2075692;28;20197;-55
2021/10/24 02:23:48;;;;;;;21.37;15.50;;;;;;;;;;2069016;28;20550;-53
2021/10/24 02:24:49;;;;;;;22.33;16.50;;;;;;;;;;2079591;28;20199;-52
2021/10/24 02:25:51;;;;;;;26.30;16.47;;;;;;;;;;2076510;28;20264;-52
2021/10/24 02:26:54;;;;;;;19.30;15.73;;;;;;;;;;2083526;28;20172;-52
2021/10/24 02:27:57;;;;;;;21.70;16.03;;;;;;;;;;2078842;28;20180;-53
2021/10/24 02:28:57;;;;;;;24.23;16.20;;;;;;;;;;2072531;28;20181;-52
2021/10/24 02:29:57;;;;;;;27.30;16.87;;;;;;;;;;2087633;28;20555;-52
2021/10/24 02:30:58;;;;;;;18.17;15.13;;;;;;;;;;2082517;28;20593;-55
2021/10/24 02:32:18;;;;;;;21.43;14.97;;;;;;;;;;2089421;28;20207;-53
2021/10/24 02:33:21;;;;;;;24.13;16.80;;;;;;;;;;2084951;28;20172;-52
2021/10/24 02:34:41;;;;;;;20.20;15.90;;;;;;;;;;2082893;28;20172;-53
2021/10/24 02:36:01;;;;;;;24.53;16.20;;;;;;;;;;2077573;28;20207;-52
2021/10/24 02:37:01;;;;;;;20.60;14.37;;;;;;;;;;2078328;28;20207;-53
2021/10/24 02:38:01;;;;;;;21.67;15.80;;;;;;;;;;2070578;28;20556;-55
2021/10/24 02:39:03;;;;;;;19.30;15.90;;;;;;;;;;2078311;28;20629;-52
2021/10/24 02:40:08;;;;;;;22.70;15.93;;;;;;;;;;2070946;28;20192;-52
2021/10/24 02:41:09;;;;;;;24.83;15.70;;;;;;;;;;2076862;28;20173;-53
2021/10/24 02:42:10;;;;;;;22.77;16.37;;;;;;;;;;2081617;28;20213;-53
2021/10/24 02:43:10;;;;;;;20.00;16.47;;;;;;;;;;2088221;28;20735;-54
2021/10/24 02:44:12;;;;;;;26.67;17.23;;;;;;;;;;2072490;28;20591;-56
2021/10/24 02:45:19;;;;;;;23.00;16.87;;;;;;;;;;2070819;28;20183;-54
2021/10/24 02:46:19;;;;;;;24.40;16.90;;;;;;;;;;2072123;28;20181;-55
2021/10/24 02:47:20;;;;;;;23.03;17.43;;;;;;;;;;2070004;28;20227;-55
2021/10/24 02:48:21;;;;;;;20.33;16.53;;;;;;;;;;2076486;28;20672;-54
2021/10/24 02:49:21;;;;;;;21.83;15.23;;;;;;;;;;2076743;28;20173;-59
2021/10/24 02:50:24;;;;;;;24.63;16.00;;;;;;;;;;2080072;28;20234;-53
2021/10/24 02:51:25;;;;;;;24.17;17.80;;;;;;;;;;2076708;28;20275;-54
2021/10/24 02:52:28;;;;;;;25.20;17.27;;;;;;;;;;2082179;28;20715;-53
2021/10/24 02:53:32;;;;;;;24.17;18.53;;;;;;;;;;2075310;28;20265;-51
2021/10/24 02:54:36;;;;;;;28.00;18.17;;;;;;;;;;2073236;28;20255;-52
2021/10/24 02:55:39;;;;;;;24.93;18.23;;;;;;;;;;2064599;28;20184;-53
2021/10/24 02:56:42;;;;;;;27.07;19.47;;;;;;;;;;2072663;28;20177;-56
2021/10/24 02:57:42;;;;;;;23.30;18.57;;;;;;;;;;2072481;28;20204;-55
2021/10/24 02:58:42;;;;;;;30.90;18.40;;;;;;;;;;2081381;28;20582;-54
2021/10/24 02:59:43;;;;;;;27.17;18.13;;;;;;;;;;2073658;28;20189;-53
2021/10/24 03:00:43;;;;;;;23.03;17.67;;;;;;;;;;2063390;28;20700;-50
2021/10/24 03:01:44;;;;;;;32.27;19.13;;;;;;;;;;2072228;28;20200;-53
2021/10/24 03:02:44;;;;;;;24.20;19.03;;;;;;;;;;2088598;28;20201;-55
2021/10/24 03:03:45;;;;;;;27.63;19.37;;;;;;;;;;2080210;28;20555;-53
2021/10/24 03:04:46;;;;;;;26.23;19.77;;;;;;;;;;2088399;28;20295;-54
2021/10/24 03:05:48;;;;;;;26.63;19.40;;;;;;;;;;2081330;28;20614;-53
2021/10/24 03:06:48;;;;;;;26.37;19.60;;;;;;;;;;2075540;28;20266;-53
2021/10/24 03:07:48;;;;;;;27.33;20.23;;;;;;;;;;2073586;28;20669;-57
2021/10/24 03:08:48;;;;;;;24.77;19.83;;;;;;;;;;2080500;28;20644;-55
2021/10/24 03:09:49;;;;;;;32.90;20.57;;;;;;;;;;2086342;28;20179;-51
2021/10/24 03:10:50;;;;;;;28.97;19.33;;;;;;;;;;2079559;28;20197;-52
2021/10/24 03:11:50;;;;;;;24.30;19.53;;;;;;;;;;2088514;28;20186;-55
2021/10/24 03:12:51;;;;;;;28.07;19.50;;;;;;;;;;2072834;28;20264;-54
2021/10/24 03:13:51;;;;;;;31.40;19.20;;;;;;;;;;2072907;28;20173;-55
2021/10/24 03:14:54;;;;;;;27.97;18.30;;;;;;;;;;2073099;28;20188;-53
2021/10/24 03:15:58;;;;;;;25.57;19.47;;;;;;;;;;2082035;28;20184;-56
2021/10/24 03:17:00;;;;;;;34.10;18.97;;;;;;;;;;2073564;28;20267;-54
2021/10/24 03:18:01;;;;;;;24.87;17.77;;;;;;;;;;2070568;28;20164;-55
2021/10/24 03:19:02;;;;;;;27.77;19.00;;;;;;;;;;2057127;28;20257;-54
2021/10/24 03:20:04;;;;;;;31.47;17.97;;;;;;;;;;2074817;28;20173;-56
2021/10/24 03:21:04;;;;;;;28.10;18.87;;;;;;;;;;2095920;28;20634;-53
2021/10/24 03:22:05;;;;;;;29.00;18.17;;;;;;;;;;2088466;28;20188;-55
2021/10/24 03:23:06;;;;;;;24.03;19.17;;;;;;;;;;2078548;28;20336;-52
2021/10/24 03:24:06;;;;;;;27.77;18.30;;;;;;;;;;2081779;28;20223;-52
2021/10/24 03:25:06;;;;;;;25.90;18.63;;;;;;;;;;2080644;28;20191;-52
2021/10/24 03:26:07;;;;;;;26.07;18.23;;;;;;;;;;2078692;28;20251;-53
2021/10/24 03:27:07;;;;;;;29.87;20.60;;;;;;;;;;2077318;28;20183;-56
2021/10/24 03:28:07;;;;;;;25.83;18.83;;;;;;;;;;2081089;28;20204;-54
2021/10/24 03:29:08;;;;;;;25.83;20.60;;;;;;;;;;2077447;28;20284;-52
2021/10/24 03:30:09;;;;;;;28.83;20.20;;;;;;;;;;2079221;28;20355;-52
2021/10/24 03:31:09;;;;;;;27.23;19.20;;;;;;;;;;2084659;28;20222;-52
2021/10/24 03:32:09;;;;;;;24.60;19.03;;;;;;;;;;2080576;28;20595;-55
2021/10/24 03:33:10;;;;;;;26.10;19.33;;;;;;;;;;2075818;28;20173;-54
2021/10/24 03:34:10;;;;;;;26.27;19.57;;;;;;;;;;2087509;28;20190;-55
2021/10/24 03:35:10;;;;;;;25.73;18.87;;;;;;;;;;2078575;28;20173;-54
2021/10/24 03:36:11;;;;;;;25.17;18.83;;;;;;;;;;2072996;28;20582;-53
2021/10/24 03:37:11;;;;;;;25.13;18.13;;;;;;;;;;2073797;28;20660;-55
2021/10/24 03:38:12;;;;;;;30.13;20.50;;;;;;;;;;2079173;28;20168;-54
2021/10/24 03:39:12;;;;;;;24.30;19.87;;;;;;;;;;2084145;28;20233;-52
2021/10/24 03:40:13;;;;;;;28.40;19.63;;;;;;;;;;2080713;28;20187;-52
2021/10/24 03:41:13;;;;;;;25.20;18.70;;;;;;;;;;2090218;28;20195;-54
2021/10/24 03:42:14;;;;;;;25.23;19.20;;;;;;;;;;2089597;28;20603;-53
2021/10/24 03:43:14;;;;;;;29.93;19.83;;;;;;;;;;2081310;28;20656;-53
2021/10/24 03:44:14;;;;;;;31.07;20.50;;;;;;;;;;2081181;28;20176;-56
2021/10/24 03:45:15;;;;;;;31.93;20.97;;;;;;;;;;2089413;28;20175;-56
2021/10/24 03:46:15;;;;;;;24.67;19.53;;;;;;;;;;2081659;28;20187;-53
2021/10/24 03:47:15;;;;;;;29.93;19.03;;;;;;;;;;2081782;28;20189;-53
2021/10/24 03:48:16;;;;;;;32.43;20.20;;;;;;;;;;2089847;28;20183;-55
2021/10/24 03:49:22;;;;;;;31.00;19.93;;;;;;;;;;2082536;28;20678;-56
2021/10/24 03:50:22;;;;;;;25.30;19.20;;;;;;;;;;2081227;28;20176;-54
2021/10/24 03:51:23;;;;;;;24.67;18.33;;;;;;;;;;2089804;28;20592;-56
2021/10/24 03:52:23;;;;;;;24.70;18.73;;;;;;;;;;2089842;28;20196;-53
2021/10/24 03:53:26;;;;;;;24.57;18.47;;;;;;;;;;2082043;28;20668;-53
2021/10/24 03:54:27;;;;;;;26.00;18.83;;;;;;;;;;2089947;28;20259;-56
2021/10/24 03:55:28;;;;;;;35.63;19.17;;;;;;;;;;2083659;28;20309;-56
2021/10/24 03:56:29;;;;;;;26.47;18.27;;;;;;;;;;2082364;28;20171;-55
2021/10/24 03:57:29;;;;;;;28.00;19.90;;;;;;;;;;2090877;28;20168;-55
2021/10/24 03:58:29;;;;;;;25.57;19.23;;;;;;;;;;2090401;28;20218;-55
2021/10/24 03:59:30;;;;;;;25.63;19.50;;;;;;;;;;2090081;28;20172;-54
2021/10/24 04:00:30;;;;;;;29.23;17.70;;;;;;;;;;2089576;28;20201;-55
2021/10/24 04:01:38;;;;;;;26.90;18.17;;;;;;;;;;2082628;28;20171;-53
2021/10/24 04:02:51;;;;;;;27.50;18.53;;;;;;;;;;2089874;28;20191;-54
2021/10/24 04:03:51;;;;;;;28.40;18.83;;;;;;;;;;2090175;28;20675;-53
2021/10/24 04:04:52;;;;;;;29.47;19.77;;;;;;;;;;2081704;28;20169;-55
2021/10/24 04:05:52;;;;;;;26.07;19.43;;;;;;;;;;2081726;28;20191;-54
2021/10/24 04:06:52;;;;;;;29.07;18.07;;;;;;;;;;2081727;28;20171;-53
2021/10/24 04:07:54;;;;;;;28.40;19.33;;;;;;;;;;2081727;28;20226;-54
2021/10/24 04:08:54;;;;;;;26.73;20.17;;;;;;;;;;2073573;28;20195;-54
2021/10/24 04:09:54;;;;;;;26.07;19.20;;;;;;;;;;2070754;28;20184;-53
2021/10/24 04:10:55;;;;;;;26.60;19.87;;;;;;;;;;2074721;28;20579;-54
2021/10/24 04:11:56;;;;;;;22.67;18.03;;;;;;;;;;2088422;28;20199;-51
2021/10/24 04:12:57;;;;;;;27.73;19.50;;;;;;;;;;2079967;28;20207;-56
2021/10/24 04:13:57;;;;;;;32.20;19.10;;;;;;;;;;2072556;28;22497;-56
2021/10/24 04:14:57;;;;;;;26.97;19.77;;;;;;;;;;2064371;28;20177;-57
2021/10/24 04:15:57;;;;;;;26.97;19.30;;;;;;;;;;2060176;28;20384;-55
2021/10/24 04:17:31;;;;;;;23.13;17.93;;;;;;;;;;2080396;28;20625;-56
2021/10/24 04:18:31;;;;;;;27.63;19.37;;;;;;;;;;2086597;28;20172;-53
2021/10/24 04:19:33;;;;;;;26.47;19.23;;;;;;;;;;2078468;28;20673;-56
2021/10/24 04:20:35;;;;;;;25.63;18.07;;;;;;;;;;2073257;28;20224;-53
2021/10/24 04:21:36;;;;;;;27.43;18.80;;;;;;;;;;2072370;28;20680;-53
2021/10/24 04:22:36;;;;;;;23.90;18.17;;;;;;;;;;2073067;28;20267;-56
2021/10/24 04:23:37;;;;;;;28.93;19.87;;;;;;;;;;2084199;28;20272;-54
2021/10/24 04:24:37;;;;;;;25.40;19.17;;;;;;;;;;2072788;28;20184;-56
2021/10/24 04:25:37;;;;;;;26.93;19.30;;;;;;;;;;2083192;28;20193;-56
2021/10/24 04:26:39;;;;;;;25.00;18.63;;;;;;;;;;2087344;28;20557;-54
2021/10/24 04:27:42;;;;;;;26.30;18.57;;;;;;;;;;2076508;28;20260;-52
2021/10/24 04:28:45;;;;;;;27.70;18.77;;;;;;;;;;2088169;28;20200;-54
2021/10/24 04:29:45;;;;;;;30.43;19.53;;;;;;;;;;2080736;28;20557;-52
2021/10/24 04:30:46;;;;;;;26.20;18.70;;;;;;;;;;2089580;28;20569;-54
2021/10/24 04:31:47;;;;;;;26.37;19.60;;;;;;;;;;2085469;28;20188;-52
2021/10/24 04:32:48;;;;;;;26.83;19.73;;;;;;;;;;2085474;28;20179;-55
2021/10/24 04:33:48;;;;;;;23.00;19.33;;;;;;;;;;2082001;28;20173;-54
2021/10/24 04:34:48;;;;;;;25.20;17.97;;;;;;;;;;2077062;28;20214;-54
2021/10/24 04:35:48;;;;;;;23.33;18.87;;;;;;;;;;2073626;28;20572;-56
2021/10/24 04:36:49;;;;;;;25.83;19.23;;;;;;;;;;2074500;28;20181;-53
2021/10/24 04:37:49;;;;;;;28.47;19.63;;;;;;;;;;2070158;28;20165;-52
2021/10/24 04:38:50;;;;;;;28.47;18.97;;;;;;;;;;2079049;28;20372;-53
2021/10/24 04:39:51;;;;;;;26.40;19.50;;;;;;;;;;2085446;28;20179;-52
2021/10/24 04:40:52;;;;;;;24.13;18.37;;;;;;;;;;2069124;28;20180;-55
2021/10/24 04:41:52;;;;;;;23.77;18.50;;;;;;;;;;2084814;28;20236;-52
2021/10/24 04:42:53;;;;;;;25.73;19.00;;;;;;;;;;2104689;22;20237;-64
2021/10/24 04:43:53;;;;;;;32.23;18.33;;;;;;;;;;2092323;28;20176;-64
2021/10/24 04:44:56;;;;;;;26.93;17.93;;;;;;;;;;2093883;28;20239;-64
2021/10/24 04:45:56;;;;;;;31.03;18.43;;;;;;;;;;2084531;28;20172;-65
2021/10/24 04:46:57;;;;;;;26.83;19.20;;;;;;;;;;2093573;28;20171;-64
2021/10/24 04:47:58;;;;;;;29.00;19.40;;;;;;;;;;2086359;28;20176;-65
2021/10/24 04:48:59;;;;;;;26.43;18.47;;;;;;;;;;2093647;28;20648;-66
2021/10/24 04:50:00;;;;;;;28.00;18.43;;;;;;;;;;2086661;28;20462;-64
2021/10/24 04:51:00;;;;;;;27.07;18.50;;;;;;;;;;2077227;28;20200;-64
2021/10/24 04:52:01;;;;;;;29.17;18.73;;;;;;;;;;2092211;28;20176;-66
2021/10/24 04:53:05;;;;;;;27.83;19.00;;;;;;;;;;2097500;28;20195;-65
2021/10/24 04:54:06;;;;;;;24.53;18.83;;;;;;;;;;2097410;28;20178;-65
2021/10/24 04:55:07;;;;;;;25.47;18.60;;;;;;;;;;2093347;28;20604;-64
2021/10/24 04:56:07;;;;;;;22.87;19.13;;;;;;;;;;2095860;28;20258;-64
2021/10/24 04:57:09;;;;;;;28.07;18.20;;;;;;;;;;2092243;28;20301;-60
2021/10/24 04:58:09;;;;;;;26.30;18.83;;;;;;;;;;2084399;28;20647;-64
2021/10/24 04:59:11;;;;;;;26.17;18.70;;;;;;;;;;2086011;28;20203;-65
2021/10/24 05:00:14;;;;;;;26.57;18.30;;;;;;;;;;2090812;28;20167;-63
2021/10/24 05:01:14;;;;;;;23.27;17.40;;;;;;;;;;2085037;28;20167;-63
2021/10/24 05:02:16;;;;;;;24.57;18.67;;;;;;;;;;2090162;28;20549;-64
2021/10/24 05:03:17;;;;;;;29.03;20.43;;;;;;;;;;2075871;28;20169;-64
2021/10/24 05:04:18;;;;;;;25.83;18.67;;;;;;;;;;2077482;28;20200;-65
2021/10/24 05:05:19;;;;;;;28.27;18.60;;;;;;;;;;2096462;28;20205;-63
2021/10/24 05:06:19;;;;;;;29.73;19.57;;;;;;;;;;2085497;28;20172;-65
2021/10/24 05:07:20;;;;;;;31.33;19.20;;;;;;;;;;2079255;28;20185;-65
2021/10/24 05:08:20;;;;;;;26.70;19.33;;;;;;;;;;2079877;28;20168;-65
2021/10/24 05:09:21;;;;;;;23.47;19.17;;;;;;;;;;2080836;28;20219;-65
2021/10/24 05:10:21;;;;;;;25.67;19.37;;;;;;;;;;2080550;28;20199;-64
2021/10/24 05:11:21;;;;;;;29.23;19.57;;;;;;;;;;2083921;28;20188;-64
2021/10/24 05:12:22;;;;;;;28.67;19.13;;;;;;;;;;2080277;28;20204;-65
2021/10/24 05:13:27;;;;;;;31.93;20.17;;;;;;;;;;2086417;28;20745;-64
2021/10/24 05:14:29;;;;;;;26.63;19.23;;;;;;;;;;2083528;28;20169;-64
2021/10/24 05:15:30;;;;;;;30.03;20.37;;;;;;;;;;2086370;28;20208;-65
2021/10/24 05:16:30;;;;;;;25.43;19.07;;;;;;;;;;2080954;28;20168;-63
2021/10/24 05:17:32;;;;;;;27.17;19.73;;;;;;;;;;2088775;28;20258;-65
2021/10/24 05:18:32;;;;;;;30.70;20.00;;;;;;;;;;2094274;28;20183;-64
2021/10/24 05:19:32;;;;;;;29.13;20.50;;;;;;;;;;2079775;28;20178;-63
2021/10/24 05:20:33;;;;;;;29.40;19.77;;;;;;;;;;2080386;28;20218;-65
2021/10/24 05:21:33;;;;;;;28.47;19.63;;;;;;;;;;2081537;28;20169;-61
2021/10/24 05:22:34;;;;;;;28.93;20.10;;;;;;;;;;2078225;28;20679;-64
2021/10/24 05:23:34;;;;;;;24.23;18.43;;;;;;;;;;2078911;28;20207;-65
2021/10/24 05:24:34;;;;;;;27.70;18.93;;;;;;;;;;2088348;28;20168;-64
2021/10/24 05:25:35;;;;;;;26.77;18.43;;;;;;;;;;2080074;28;20168;-65
2021/10/24 05:26:37;;;;;;;26.87;18.83;;;;;;;;;;2078630;28;20199;-65
2021/10/24 05:27:38;;;;;;;23.70;18.23;;;;;;;;;;2071639;28;20196;-64
2021/10/24 05:28:39;;;;;;;25.60;18.67;;;;;;;;;;2079257;28;20179;-64
2021/10/24 05:29:39;;;;;;;25.87;19.33;;;;;;;;;;2088413;28;20221;-64
2021/10/24 05:30:39;;;;;;;26.17;19.33;;;;;;;;;;2087862;28;20207;-64
2021/10/24 05:31:40;;;;;;;29.60;20.03;;;;;;;;;;2087725;28;20565;-64
2021/10/24 05:32:48;;;;;;;23.17;18.77;;;;;;;;;;2081474;28;20198;-65
2021/10/24 05:33:49;;;;;;;26.57;19.03;;;;;;;;;;2077163;28;20222;-64
2021/10/24 05:35:00;;;;;;;33.50;20.70;;;;;;;;;;2077534;28;20177;-65
2021/10/24 05:36:02;;;;;;;32.30;20.40;;;;;;;;;;2091015;28;20517;-64
2021/10/24 05:37:03;;;;;;;27.17;20.27;;;;;;;;;;2078730;28;20247;-65
2021/10/24 05:38:03;;;;;;;29.83;21.47;;;;;;;;;;2091020;28;20535;-65
2021/10/24 05:39:08;;;;;;;30.83;20.77;;;;;;;;;;2091814;28;20198;-62
2021/10/24 05:40:09;;;;;;;34.10;22.00;;;;;;;;;;2094205;28;20531;-64
2021/10/24 05:41:14;;;;;;;31.13;22.03;;;;;;;;;;2076306;28;20167;-65
2021/10/24 05:42:15;;;;;;;33.07;22.10;;;;;;;;;;2082130;28;20191;-65
2021/10/24 05:43:16;;;;;;;31.57;22.10;;;;;;;;;;2092466;28;20577;-65
2021/10/24 05:44:19;;;;;;;29.20;21.67;;;;;;;;;;2084020;28;20168;-65
2021/10/24 05:45:21;;;;;;;35.80;22.60;;;;;;;;;;2084922;28;20182;-65
2021/10/24 05:46:21;;;;;;;29.53;22.00;;;;;;;;;;2076184;28;20169;-65
2021/10/24 05:47:22;;;;;;;29.90;22.10;;;;;;;;;;2085353;28;20180;-65
2021/10/24 05:48:22;;;;;;;26.47;21.07;;;;;;;;;;2091464;28;20211;-64
2021/10/24 05:49:30;;;;;;;30.03;21.10;;;;;;;;;;2086959;28;20197;-65
2021/10/24 05:50:30;;;;;;;28.03;20.17;;;;;;;;;;2093847;28;20183;-63
2021/10/24 05:51:32;;;;;;;26.03;20.07;;;;;;;;;;2080964;28;20179;-64
2021/10/24 05:52:33;;;;;;;27.70;21.27;;;;;;;;;;2072363;28;20430;-63
2021/10/24 05:53:33;;;;;;;26.90;20.60;;;;;;;;;;2086867;28;20554;-64
2021/10/24 05:54:34;;;;;;;30.63;20.37;;;;;;;;;;2089164;28;20236;-65
2021/10/24 05:55:38;;;;;;;27.00;21.20;;;;;;;;;;2095426;28;20206;-64
2021/10/24 05:56:39;;;;;;;31.27;20.57;;;;;;;;;;2071724;28;20681;-63
2021/10/24 05:57:41;;;;;;;29.90;21.10;;;;;;;;;;2078701;28;20173;-65